Time;durP1;ratioP1;P1;durP2;ratioP2;P2;SDS_P1;SDS_P2;PMS_P1;PMS_P2;Temp;Humidity;BMP_temperature;BMP_pressure;BME280_temperature;BME280_humidity;BME280_pressure;Samples;Min_cycle;Max_cycle;Signal;HPM_P1;HPM_P2
2022/09/14 00:01:20;;;;;;;6.47;1.70;;;21.50;99.90;;;;;;5031458;28;20220;-75
2022/09/14 00:03:46;;;;;;;1.60;1.50;;;21.50;99.90;;;;;;5031422;28;20530;-75
2022/09/14 00:06:14;;;;;;;3.43;1.80;;;21.50;99.90;;;;;;5031178;28;20467;-75
2022/09/14 00:08:42;;;;;;;4.87;1.70;;;21.50;99.90;;;;;;5031229;28;20428;-75
2022/09/14 00:11:13;;;;;;;4.20;2.27;;;21.60;99.90;;;;;;5029933;28;20428;-75
2022/09/14 00:13:41;;;;;;;2.50;1.80;;;21.60;99.90;;;;;;5029763;28;20820;-75
2022/09/14 00:16:35;;;;;;;4.23;1.50;;;21.60;99.90;;;;;;5029925;28;20909;-75
2022/09/14 00:19:05;;;;;;;5.53;2.00;;;21.60;99.90;;;;;;5026501;28;20424;-75
2022/09/14 00:21:32;;;;;;;2.00;1.80;;;21.60;99.90;;;;;;5030926;28;20485;-75
2022/09/14 00:23:58;;;;;;;3.63;2.00;;;21.60;99.90;;;;;;5030856;28;20533;-74
2022/09/14 00:26:25;;;;;;;4.47;1.70;;;21.60;99.90;;;;;;5029370;28;21191;-75
2022/09/14 00:28:53;;;;;;;1.80;1.70;;;21.70;99.90;;;;;;5030790;28;20189;-75
2022/09/14 00:31:20;;;;;;;3.40;1.70;;;21.60;99.90;;;;;;5029325;28;20431;-75
2022/09/14 00:33:47;;;;;;;1.60;1.50;;;21.60;99.90;;;;;;5030821;28;20947;-75
2022/09/14 00:36:23;;;;;;;4.77;1.80;;;21.50;99.90;;;;;;5030650;28;20431;-75
2022/09/14 00:38:50;;;;;;;5.07;1.67;;;21.50;99.90;;;;;;5029162;28;20435;-75
2022/09/14 00:41:22;;;;;;;8.93;2.00;;;21.50;99.90;;;;;;5030302;28;20423;-75
2022/09/14 00:44:25;;;;;;;2.43;1.90;;;21.50;99.90;;;;;;5028982;28;20482;-75
2022/09/14 00:46:53;;;;;;;1.97;1.30;;;21.40;99.90;;;;;;5030036;28;20799;-74
2022/09/14 00:49:38;;;;;;;2.70;1.80;;;21.50;99.90;;;;;;5030021;28;20417;-75
2022/09/14 00:52:08;;;;;;;2.50;1.97;;;21.40;99.90;;;;;;5028554;28;20498;-74
2022/09/14 00:54:39;;;;;;;3.13;1.70;;;21.50;99.90;;;;;;5030617;28;20449;-75
2022/09/14 00:57:05;;;;;;;5.50;1.40;;;21.50;99.90;;;;;;5030299;28;20455;-75
2022/09/14 00:59:35;;;;;;;3.07;1.30;;;21.50;99.90;;;;;;5029853;28;20968;-75
2022/09/14 01:02:01;;;;;;;2.43;1.70;;;21.50;99.90;;;;;;5027306;28;20774;-75
2022/09/14 01:04:27;;;;;;;3.80;2.07;;;21.50;99.90;;;;;;5029444;28;20428;-75
2022/09/14 01:07:41;;;;;;;5.90;1.40;;;21.50;99.90;;;;;;5029397;28;20497;-75
2022/09/14 01:10:19;;;;;;;1.40;1.30;;;21.50;99.90;;;;;;5026241;28;20208;-75
2022/09/14 01:13:03;;;;;;;3.93;1.40;;;21.40;99.90;;;;;;5029249;28;20543;-75
2022/09/14 01:16:04;;;;;;;3.47;1.77;;;21.50;99.90;;;;;;5029405;28;20450;-75
2022/09/14 01:18:54;;;;;;;6.17;1.63;;;21.50;99.90;;;;;;5029206;28;20859;-75
2022/09/14 01:21:31;;;;;;;4.87;2.10;;;21.50;99.90;;;;;;5029209;28;20462;-75
2022/09/14 01:24:11;;;;;;;4.50;1.40;;;21.50;99.90;;;;;;5029141;28;20438;-75
2022/09/14 01:26:36;;;;;;;2.03;1.50;;;21.50;99.90;;;;;;5029087;28;20550;-75
2022/09/14 01:29:32;;;;;;;6.33;2.70;;;21.50;99.90;;;;;;5029077;28;20861;-76
2022/09/14 01:32:16;;;;;;;5.60;2.80;;;21.30;99.90;;;;;;5028987;28;20695;-76
2022/09/14 01:35:06;;;;;;;6.53;2.30;;;20.60;99.90;;;;;;5029214;28;21031;-76
2022/09/14 01:37:50;;;;;;;3.23;2.33;;;20.10;99.90;;;;;;5027626;28;20446;-76
2022/09/14 01:40:31;;;;;;;3.00;2.20;;;19.80;99.90;;;;;;5028767;28;20419;-76
2022/09/14 01:43:16;;;;;;;10.57;2.83;;;19.70;99.90;;;;;;5028860;28;21250;-76
2022/09/14 01:46:07;;;;;;;4.83;2.37;;;19.60;99.90;;;;;;5028478;28;20427;-75
2022/09/14 01:48:49;;;;;;;5.43;2.70;;;19.50;99.90;;;;;;5028603;28;20442;-75
2022/09/14 01:51:21;;;;;;;4.50;3.20;;;19.50;99.90;;;;;;5028718;28;20924;-76
2022/09/14 01:53:58;;;;;;;3.37;2.63;;;19.40;99.90;;;;;;5028497;28;20794;-76
2022/09/14 01:56:31;;;;;;;7.37;3.40;;;19.30;99.90;;;;;;5028359;28;20497;-76
2022/09/14 01:59:15;;;;;;;8.80;3.80;;;19.40;99.90;;;;;;5028363;28;20410;-76
2022/09/14 02:02:10;;;;;;;3.43;3.13;;;19.30;99.90;;;;;;5028577;28;20431;-77
2022/09/14 02:05:06;;;;;;;7.43;2.97;;;19.30;99.90;;;;;;5012307;28;20426;-77
2022/09/14 02:07:33;;;;;;;6.40;3.60;;;19.30;99.90;;;;;;5028177;28;21036;-77
2022/09/14 02:09:59;;;;;;;5.70;3.57;;;19.20;99.90;;;;;;5027241;28;20958;-77
2022/09/14 02:12:25;;;;;;;5.97;4.00;;;19.10;99.90;;;;;;5028692;28;20459;-77
2022/09/14 02:14:52;;;;;;;8.13;4.80;;;19.00;99.90;;;;;;5031242;28;20649;-77
2022/09/14 02:17:18;;;;;;;4.40;4.00;;;18.90;99.90;;;;;;5032341;28;20423;-75
2022/09/14 02:19:53;;;;;;;7.13;4.20;;;18.80;99.90;;;;;;5032559;28;20415;-75
2022/09/14 02:22:19;;;;;;;8.60;5.00;;;18.80;99.90;;;;;;5032136;28;20621;-76
2022/09/14 02:24:45;;;;;;;10.77;5.37;;;18.80;99.90;;;;;;5030877;28;20423;-76
2022/09/14 02:27:11;;;;;;;7.40;4.77;;;18.70;99.90;;;;;;5030718;28;20217;-75
2022/09/14 02:29:37;;;;;;;4.17;3.77;;;18.80;99.90;;;;;;5032454;28;20427;-75
2022/09/14 02:32:27;;;;;;;7.37;4.77;;;18.70;99.90;;;;;;5030726;28;20291;-75
2022/09/14 02:35:16;;;;;;;5.03;4.40;;;18.70;99.90;;;;;;5030699;28;20415;-76
2022/09/14 02:37:45;;;;;;;11.03;5.30;;;18.60;99.90;;;;;;5032135;28;20920;-77
2022/09/14 02:40:31;;;;;;;5.33;4.37;;;18.40;99.90;;;;;;5032233;28;20416;-77
2022/09/14 02:43:09;;;;;;;8.80;4.57;;;18.30;99.90;;;;;;5032150;28;20446;-77
2022/09/14 02:45:54;;;;;;;9.00;5.50;;;18.30;99.90;;;;;;5032241;28;21266;-78
2022/09/14 02:48:41;;;;;;;6.93;4.70;;;18.10;99.90;;;;;;5033772;28;20934;-77
2022/09/14 02:51:22;;;;;;;6.30;5.20;;;18.10;99.90;;;;;;5032678;28;20410;-77
2022/09/14 02:53:54;;;;;;;5.73;4.63;;;18.20;99.90;;;;;;5030797;28;20430;-77
2022/09/14 02:56:20;;;;;;;7.83;3.77;;;18.10;99.90;;;;;;5032225;28;20536;-78
2022/09/14 02:58:46;;;;;;;7.40;4.20;;;18.20;99.90;;;;;;5032256;28;20785;-79
2022/09/14 03:01:15;;;;;;;7.73;4.07;;;18.30;99.90;;;;;;5032193;28;20461;-79
2022/09/14 03:03:40;;;;;;;8.63;4.47;;;18.20;99.90;;;;;;5032674;28;20195;-80
2022/09/14 03:06:06;;;;;;;5.63;4.40;;;18.20;99.90;;;;;;5031059;28;20431;-80
2022/09/14 03:08:32;;;;;;;5.97;4.43;;;18.10;99.90;;;;;;5030807;28;20199;-79
2022/09/14 03:10:58;;;;;;;9.10;4.30;;;18.20;99.90;;;;;;5032521;28;20180;-79
2022/09/14 03:13:24;;;;;;;9.50;4.80;;;18.30;99.90;;;;;;5030488;28;20839;-78
2022/09/14 03:15:49;;;;;;;11.10;4.60;;;18.40;99.90;;;;;;5032863;28;20500;-78
2022/09/14 03:18:16;;;;;;;9.87;5.90;;;18.40;99.90;;;;;;5032635;28;20215;-78
2022/09/14 03:20:42;;;;;;;7.13;4.80;;;18.30;99.90;;;;;;5031439;28;20553;-78
2022/09/14 03:23:10;;;;;;;8.20;4.83;;;18.40;99.90;;;;;;5031686;28;20470;-78
2022/09/14 03:25:41;;;;;;;6.87;4.40;;;18.40;99.90;;;;;;5032471;28;20418;-78
2022/09/14 03:28:08;;;;;;;27.50;5.97;;;18.50;99.90;;;;;;5031028;28;20470;-77
2022/09/14 03:30:34;;;;;;;8.13;5.10;;;18.50;99.90;;;;;;5032059;28;20518;-79
2022/09/14 03:33:00;;;;;;;7.03;5.37;;;18.40;99.90;;;;;;5031716;28;20448;-79
2022/09/14 03:35:30;;;;;;;6.30;4.67;;;18.40;99.90;;;;;;5030062;28;20518;-78
2022/09/14 03:37:57;;;;;;;6.93;4.20;;;18.50;99.90;;;;;;5030080;28;20183;-78
2022/09/14 03:40:22;;;;;;;9.57;5.17;;;18.40;99.90;;;;;;5029623;28;20514;-79
2022/09/14 03:42:50;;;;;;;8.30;5.00;;;18.50;99.90;;;;;;5029610;28;20551;-79
2022/09/14 03:45:17;;;;;;;9.00;4.80;;;18.50;99.90;;;;;;5031233;28;20186;-79
2022/09/14 03:47:43;;;;;;;6.10;4.87;;;18.50;99.90;;;;;;5031265;28;20471;-79
2022/09/14 03:50:10;;;;;;;23.27;6.20;;;18.40;99.90;;;;;;5031423;28;20419;-79
2022/09/14 03:52:37;;;;;;;5.17;4.53;;;18.40;99.90;;;;;;5029842;28;20840;-79
2022/09/14 03:55:06;;;;;;;5.60;4.47;;;18.40;99.90;;;;;;5029855;28;20504;-80
2022/09/14 03:57:32;;;;;;;5.47;4.07;;;18.30;99.90;;;;;;5031120;28;20434;-79
2022/09/14 03:59:58;;;;;;;7.20;4.70;;;18.20;99.90;;;;;;5030969;28;20445;-79
2022/09/14 04:02:24;;;;;;;7.60;4.60;;;18.20;99.90;;;;;;5029930;28;20477;-78
2022/09/14 04:04:50;;;;;;;5.40;4.50;;;18.10;99.90;;;;;;5030785;28;20432;-78
2022/09/14 04:07:16;;;;;;;12.20;5.43;;;18.10;99.90;;;;;;5031134;28;20481;-78
2022/09/14 04:09:43;;;;;;;7.30;4.40;;;18.00;99.90;;;;;;5029420;28;20193;-78
2022/09/14 04:12:08;;;;;;;7.20;4.87;;;17.90;99.90;;;;;;5030465;28;20446;-78
2022/09/14 04:14:34;;;;;;;7.30;4.30;;;18.00;99.90;;;;;;5029132;28;20428;-78
2022/09/14 04:17:00;;;;;;;10.87;5.20;;;17.90;99.90;;;;;;5030482;28;20187;-77
2022/09/14 04:19:25;;;;;;;6.47;4.53;;;17.80;99.90;;;;;;5030641;28;20188;-79
2022/09/14 04:21:51;;;;;;;7.90;5.37;;;17.80;99.90;;;;;;5030419;28;20293;-79
2022/09/14 04:24:16;;;;;;;6.67;4.77;;;17.70;99.90;;;;;;5030443;28;20638;-78
2022/09/14 04:26:43;;;;;;;5.80;4.53;;;17.80;99.90;;;;;;5028875;28;20336;-78
2022/09/14 04:29:10;;;;;;;7.03;3.87;;;17.70;99.90;;;;;;5029127;28;20211;-79
2022/09/14 04:31:35;;;;;;;9.17;4.50;;;17.70;99.90;;;;;;5030006;28;20444;-79
2022/09/14 04:34:01;;;;;;;7.93;6.03;;;17.90;99.90;;;;;;5032146;28;20515;-77
2022/09/14 04:36:29;;;;;;;7.93;4.30;;;18.00;99.90;;;;;;5030589;28;20652;-77
2022/09/14 04:38:57;;;;;;;9.00;5.17;;;18.00;99.90;;;;;;5044838;28;20518;-76
2022/09/14 04:41:23;;;;;;;5.07;4.57;;;18.00;99.90;;;;;;5056075;28;20503;-76
2022/09/14 04:43:51;;;;;;;5.27;4.77;;;18.00;99.90;;;;;;5056367;28;20437;-76
2022/09/14 04:46:25;;;;;;;5.70;4.90;;;17.90;99.90;;;;;;5056263;28;20457;-76
2022/09/14 04:48:51;;;;;;;5.50;4.53;;;17.90;99.90;;;;;;5036975;28;20433;-77
2022/09/14 04:51:20;;;;;;;7.30;4.90;;;18.00;99.90;;;;;;5030071;28;20426;-77
2022/09/14 04:53:49;;;;;;;9.33;4.57;;;18.10;99.90;;;;;;5031244;28;20196;-77
2022/09/14 04:56:15;;;;;;;5.40;4.63;;;18.10;99.90;;;;;;5031571;28;20427;-77
2022/09/14 04:58:43;;;;;;;7.00;4.27;;;18.10;99.90;;;;;;5029112;28;20425;-77
2022/09/14 05:01:12;;;;;;;6.77;4.20;;;18.10;99.90;;;;;;5029525;28;20783;-77
2022/09/14 05:03:38;;;;;;;9.93;4.70;;;18.10;99.90;;;;;;5029055;28;20424;-77
2022/09/14 05:06:10;;;;;;;10.17;5.20;;;18.20;99.90;;;;;;5028683;28;20906;-78
2022/09/14 05:08:37;;;;;;;7.53;4.00;;;18.30;99.90;;;;;;5027971;28;20422;-77
2022/09/14 05:11:04;;;;;;;9.07;3.80;;;18.30;99.90;;;;;;5029041;28;20411;-78
2022/09/14 05:13:30;;;;;;;8.00;3.67;;;18.50;99.90;;;;;;5027877;28;20459;-78
2022/09/14 05:16:05;;;;;;;9.17;3.90;;;18.50;99.90;;;;;;5028072;28;20457;-78
2022/09/14 05:18:31;;;;;;;7.07;4.27;;;18.70;99.90;;;;;;5030346;28;20506;-78
2022/09/14 05:20:59;;;;;;;8.43;4.10;;;18.80;99.90;;;;;;5030101;28;20833;-78
2022/09/14 05:23:24;;;;;;;11.37;4.30;;;18.80;99.90;;;;;;5030194;28;20212;-78
2022/09/14 05:25:53;;;;;;;9.13;4.23;;;18.90;99.90;;;;;;5031511;28;20419;-77
2022/09/14 05:28:18;;;;;;;10.63;4.17;;;18.80;99.90;;;;;;5030820;28;20275;-77
2022/09/14 05:30:44;;;;;;;4.90;4.00;;;18.90;99.90;;;;;;5031042;28;20898;-77
2022/09/14 05:33:10;;;;;;;12.10;3.33;;;18.90;99.90;;;;;;5013216;28;20212;-77
2022/09/14 05:35:35;;;;;;;8.47;4.00;;;18.90;99.90;;;;;;5032168;28;20617;-77
2022/09/14 05:38:01;;;;;;;7.10;3.70;;;19.00;99.90;;;;;;5031434;28;20199;-77
2022/09/14 05:40:26;;;;;;;4.53;2.93;;;19.00;99.90;;;;;;5030444;28;20184;-78
2022/09/14 05:42:52;;;;;;;9.50;3.50;;;19.10;99.90;;;;;;5030268;28;20214;-77
2022/09/14 05:45:17;;;;;;;5.43;3.23;;;19.20;99.90;;;;;;5029758;28;20239;-77
2022/09/14 05:47:43;;;;;;;7.90;3.40;;;19.20;99.90;;;;;;5030067;28;20212;-77
2022/09/14 05:50:09;;;;;;;4.83;2.73;;;19.30;99.90;;;;;;5029431;28;20185;-77
2022/09/14 05:52:34;;;;;;;7.50;2.70;;;19.40;99.90;;;;;;5030117;28;20282;-77
2022/09/14 05:55:00;;;;;;;4.87;2.93;;;19.40;99.90;;;;;;5030094;28;20202;-77
2022/09/14 05:57:26;;;;;;;4.20;2.80;;;19.40;99.90;;;;;;5031644;28;20547;-78
2022/09/14 05:59:51;;;;;;;3.93;2.50;;;19.40;99.90;;;;;;5012290;28;20477;-77
2022/09/14 06:02:17;;;;;;;3.87;2.40;;;19.50;99.90;;;;;;5029871;28;20750;-77
2022/09/14 06:04:43;;;;;;;9.20;2.37;;;19.50;99.90;;;;;;5030920;28;20625;-78
2022/09/14 06:07:08;;;;;;;4.80;3.03;;;19.60;99.90;;;;;;5030309;28;20219;-77
2022/09/14 06:09:34;;;;;;;6.57;2.73;;;19.60;99.90;;;;;;5029162;28;20262;-77
2022/09/14 06:11:59;;;;;;;6.33;2.50;;;19.60;99.90;;;;;;5027325;28;20212;-77
2022/09/14 06:14:25;;;;;;;2.47;2.00;;;19.80;99.90;;;;;;5028329;28;20222;-77
2022/09/14 06:16:50;;;;;;;4.93;2.50;;;19.80;99.90;;;;;;5026894;28;20219;-77
2022/09/14 06:19:16;;;;;;;2.27;2.07;;;19.90;99.90;;;;;;5026181;28;20842;-77
2022/09/14 06:21:42;;;;;;;7.23;2.50;;;19.90;99.90;;;;;;5026376;28;20216;-77
2022/09/14 06:24:11;;;;;;;4.27;2.70;;;19.90;99.90;;;;;;5026166;28;20219;-77
2022/09/14 06:26:37;;;;;;;2.10;1.90;;;19.90;99.90;;;;;;5027524;28;20217;-77
2022/09/14 06:29:02;;;;;;;2.40;2.20;;;20.00;99.90;;;;;;5025441;28;20426;-77
2022/09/14 06:31:28;;;;;;;7.23;2.63;;;20.10;99.90;;;;;;5026813;28;20426;-76
2022/09/14 06:33:54;;;;;;;7.40;3.03;;;20.10;99.90;;;;;;5028892;28;20238;-77
2022/09/14 06:36:23;;;;;;;3.73;2.23;;;20.20;99.90;;;;;;5028889;28;20940;-77
2022/09/14 06:38:49;;;;;;;7.20;2.00;;;20.10;99.90;;;;;;5028540;28;20200;-77
2022/09/14 06:41:18;;;;;;;5.47;2.83;;;20.10;99.90;;;;;;5030323;28;20433;-77
2022/09/14 06:43:43;;;;;;;5.10;2.40;;;20.20;99.90;;;;;;5028596;28;20801;-77
2022/09/14 06:46:41;;;;;;;4.03;2.53;;;20.10;99.90;;;;;;5031200;28;20522;-77
2022/09/14 06:49:10;;;;;;;4.13;2.13;;;20.10;99.90;;;;;;5006542;28;20200;-78
2022/09/14 06:51:42;;;;;;;3.57;2.00;;;20.10;99.90;;;;;;5030078;28;20936;-77
2022/09/14 06:54:10;;;;;;;4.13;2.70;;;20.10;99.90;;;;;;5027404;28;20951;-77
2022/09/14 06:56:41;;;;;;;3.97;2.40;;;20.20;99.90;;;;;;5028177;28;20450;-77
2022/09/14 06:59:08;;;;;;;4.00;2.57;;;20.20;99.90;;;;;;5012060;28;20442;-77
2022/09/14 07:01:34;;;;;;;4.10;2.60;;;20.20;99.90;;;;;;5030701;28;20453;-77
2022/09/14 07:04:00;;;;;;;2.63;2.13;;;20.30;99.90;;;;;;5029999;28;20439;-77
2022/09/14 07:06:29;;;;;;;5.07;2.50;;;20.30;99.90;;;;;;5031308;28;20463;-77
2022/09/14 07:08:55;;;;;;;4.90;2.37;;;20.30;99.90;;;;;;5030436;28;20455;-77
2022/09/14 07:11:24;;;;;;;4.40;2.70;;;20.40;99.90;;;;;;5031271;28;20892;-77
2022/09/14 07:13:51;;;;;;;5.10;2.70;;;20.40;99.90;;;;;;5031115;28;20456;-77
2022/09/14 07:16:17;;;;;;;4.10;2.33;;;20.50;99.90;;;;;;5031921;28;20419;-77
2022/09/14 07:18:43;;;;;;;4.37;2.30;;;20.50;99.90;;;;;;5030324;28;20423;-77
2022/09/14 07:21:14;;;;;;;3.23;2.60;;;20.50;99.90;;;;;;5030265;28;20426;-77
2022/09/14 07:23:45;;;;;;;6.77;2.87;;;20.60;99.90;;;;;;5031884;28;20271;-77
2022/09/14 07:26:15;;;;;;;4.03;2.23;;;20.60;99.90;;;;;;5031684;28;20527;-77
2022/09/14 07:28:42;;;;;;;7.10;2.53;;;20.70;99.90;;;;;;5031757;28;20589;-77
2022/09/14 07:31:17;;;;;;;4.33;2.97;;;20.80;99.90;;;;;;5032249;28;20416;-77
2022/09/14 07:33:43;;;;;;;12.63;3.07;;;20.90;99.90;;;;;;5031141;28;20495;-77
2022/09/14 07:36:11;;;;;;;2.50;2.30;;;21.00;99.90;;;;;;5012952;28;20439;-77
2022/09/14 07:38:37;;;;;;;3.03;2.50;;;21.10;99.90;;;;;;5032915;28;20447;-77
2022/09/14 07:41:03;;;;;;;6.40;2.47;;;21.20;99.90;;;;;;5031298;28;20447;-77
2022/09/14 07:43:29;;;;;;;2.73;2.53;;;21.20;99.90;;;;;;5030407;28;20513;-77
2022/09/14 07:45:55;;;;;;;8.90;2.30;;;21.30;99.90;;;;;;5031677;28;20446;-77
2022/09/14 07:48:21;;;;;;;4.57;2.53;;;21.30;99.90;;;;;;5029512;28;20995;-77
2022/09/14 07:50:47;;;;;;;4.37;2.97;;;21.20;99.90;;;;;;5030702;28;20259;-77
2022/09/14 07:53:13;;;;;;;4.33;2.50;;;21.30;99.90;;;;;;5028683;28;21027;-77
2022/09/14 07:55:39;;;;;;;5.07;2.83;;;21.30;99.90;;;;;;5030024;28;20177;-77
2022/09/14 07:58:06;;;;;;;4.23;2.33;;;21.30;99.90;;;;;;5029820;28;20466;-77
2022/09/14 08:00:32;;;;;;;5.47;2.10;;;21.30;99.90;;;;;;5028267;28;20428;-77
2022/09/14 08:02:58;;;;;;;7.70;2.93;;;21.40;99.90;;;;;;5030232;28;20439;-77
2022/09/14 08:05:25;;;;;;;9.40;2.67;;;21.50;99.90;;;;;;5029146;28;20489;-77
2022/09/14 08:07:56;;;;;;;3.23;2.23;;;21.60;99.90;;;;;;5029001;28;21002;-77
2022/09/14 08:10:24;;;;;;;5.97;2.57;;;21.80;99.90;;;;;;5029553;28;20424;-77
2022/09/14 08:12:55;;;;;;;3.40;2.00;;;21.90;99.90;;;;;;5029125;28;20516;-77
2022/09/14 08:15:22;;;;;;;3.40;2.20;;;22.00;99.90;;;;;;5028423;28;20444;-77
2022/09/14 08:17:48;;;;;;;3.30;2.50;;;22.10;99.90;;;;;;5029049;28;20423;-77
2022/09/14 08:20:15;;;;;;;2.90;2.60;;;22.20;99.90;;;;;;5029021;28;20420;-76
2022/09/14 08:22:43;;;;;;;2.80;2.10;;;22.30;99.90;;;;;;5028568;28;20451;-77
2022/09/14 08:25:10;;;;;;;4.73;2.20;;;22.40;99.90;;;;;;5027566;28;20459;-76
2022/09/14 08:27:36;;;;;;;5.80;2.80;;;22.40;99.90;;;;;;5030955;28;20466;-77
2022/09/14 08:30:03;;;;;;;5.47;2.47;;;22.40;99.90;;;;;;5029737;28;20425;-77
2022/09/14 08:32:28;;;;;;;4.67;2.50;;;22.50;99.90;;;;;;5028387;28;20455;-77
2022/09/14 08:34:54;;;;;;;4.70;2.80;;;22.50;99.90;;;;;;5011800;28;20431;-77
2022/09/14 08:37:20;;;;;;;3.70;2.43;;;22.60;99.90;;;;;;5030544;28;20612;-77
2022/09/14 08:39:45;;;;;;;4.90;1.87;;;22.70;99.90;;;;;;5028424;28;20238;-77
2022/09/14 08:42:21;;;;;;;4.97;2.73;;;22.60;99.90;;;;;;5029499;28;20220;-77
2022/09/14 08:45:00;;;;;;;5.83;2.40;;;22.80;99.90;;;;;;5029832;28;20416;-78
2022/09/14 08:47:35;;;;;;;4.90;2.23;;;22.90;99.90;;;;;;5028265;28;20476;-77
2022/09/14 08:50:10;;;;;;;4.27;2.30;;;23.10;99.90;;;;;;5030045;28;20442;-77
2022/09/14 08:52:53;;;;;;;4.70;2.60;;;23.20;99.90;;;;;;5029351;28;20443;-77
2022/09/14 08:55:27;;;;;;;6.00;2.10;;;23.20;99.90;;;;;;5027768;28;20420;-77
2022/09/14 08:58:19;;;;;;;6.87;2.37;;;23.10;99.90;;;;;;5028961;28;20424;-77
2022/09/14 09:00:56;;;;;;;2.60;2.40;;;23.10;99.90;;;;;;5029295;28;20422;-77
2022/09/14 09:03:51;;;;;;;3.67;2.07;;;23.20;99.90;;;;;;5029387;28;20444;-78
2022/09/14 09:06:34;;;;;;;5.87;2.93;;;23.30;99.90;;;;;;5029297;28;20421;-77
2022/09/14 09:09:15;;;;;;;4.17;2.40;;;23.80;99.90;;;;;;5028879;28;21063;-78
2022/09/14 09:11:45;;;;;;;7.53;2.47;;;24.00;99.90;;;;;;5029558;28;20428;-77
2022/09/14 09:14:34;;;;;;;4.57;2.00;;;24.40;99.90;;;;;;5029226;28;20452;-77
2022/09/14 09:17:04;;;;;;;3.20;2.10;;;24.70;99.90;;;;;;5029796;28;20422;-77
2022/09/14 09:19:56;;;;;;;3.90;2.27;;;25.00;99.90;;;;;;5027773;28;20954;-78
2022/09/14 09:22:26;;;;;;;4.50;2.27;;;25.00;99.90;;;;;;5028042;28;20513;-78
2022/09/14 09:24:54;;;;;;;4.20;2.00;;;25.50;99.90;;;;;;5027787;28;20613;-78
2022/09/14 09:27:22;;;;;;;5.60;2.20;;;25.80;99.90;;;;;;5029996;28;20465;-78
2022/09/14 09:29:47;;;;;;;3.53;2.40;;;26.00;99.90;;;;;;5030185;28;20447;-78
2022/09/14 09:32:20;;;;;;;5.13;2.37;;;26.40;99.90;;;;;;5028455;28;20478;-78
2022/09/14 09:34:46;;;;;;;9.73;3.47;;;26.60;99.90;;;;;;5028585;28;20195;-78
2022/09/14 09:37:18;;;;;;;6.03;2.10;;;26.70;99.90;;;;;;5029747;28;20419;-78
2022/09/14 09:39:44;;;;;;;8.47;2.40;;;27.00;99.90;;;;;;5028961;28;20946;-78
2022/09/14 09:42:19;;;;;;;3.57;2.13;;;26.90;99.90;;;;;;5029864;28;20924;-78
2022/09/14 09:45:04;;;;;;;4.03;1.90;;;27.20;99.90;;;;;;5029513;28;20437;-77
2022/09/14 09:47:41;;;;;;;5.90;2.40;;;27.60;99.90;;;;;;5028491;28;21178;-77
2022/09/14 09:50:12;;;;;;;4.80;2.37;;;27.90;99.90;;;;;;5029932;28;20960;-78
2022/09/14 09:52:55;;;;;;;6.93;1.97;;;28.30;99.90;;;;;;5029426;28;20442;-77
2022/09/14 09:55:34;;;;;;;2.37;1.90;;;28.10;99.90;;;;;;5027890;28;20790;-77
2022/09/14 09:58:27;;;;;;;5.20;2.40;;;28.30;99.90;;;;;;5029687;28;20509;-78
2022/09/14 10:01:18;;;;;;;6.43;3.20;;;28.30;99.90;;;;;;5028898;28;20816;-78
2022/09/14 10:04:00;;;;;;;4.87;1.90;;;27.90;99.90;;;;;;5023115;28;20538;-78
2022/09/14 10:06:26;;;;;;;4.00;2.07;;;28.10;99.90;;;;;;5028289;28;20549;-77
2022/09/14 10:08:53;;;;;;;5.40;2.20;;;27.90;99.90;;;;;;5026405;28;21015;-77
2022/09/14 10:11:37;;;;;;;5.00;2.50;;;27.40;99.90;;;;;;5027989;28;20188;-77
2022/09/14 10:14:04;;;;;;;9.63;2.60;;;27.50;99.90;;;;;;5026506;28;20439;-77
2022/09/14 10:16:37;;;;;;;3.30;1.93;;;27.60;99.90;;;;;;5027753;28;20447;-77
2022/09/14 10:19:12;;;;;;;2.50;1.70;;;27.30;99.90;;;;;;5026305;28;20544;-76
2022/09/14 10:22:03;;;;;;;6.83;2.37;;;27.40;99.90;;;;;;5029642;28;20464;-77
2022/09/14 10:24:30;;;;;;;9.30;2.07;;;27.10;99.90;;;;;;5029957;28;20499;-77
2022/09/14 10:26:56;;;;;;;2.90;2.17;;;27.00;99.90;;;;;;5029744;28;20497;-78
2022/09/14 10:29:40;;;;;;;3.70;2.33;;;26.70;99.90;;;;;;5028146;28;20542;-77
2022/09/14 10:32:16;;;;;;;4.47;2.50;;;26.60;99.90;;;;;;5029210;28;20234;-77
2022/09/14 10:34:42;;;;;;;5.67;2.67;;;26.50;99.90;;;;;;5032397;28;20488;-77
2022/09/14 10:37:17;;;;;;;7.53;2.60;;;26.50;99.90;;;;;;5033649;28;20910;-78
2022/09/14 10:40:06;;;;;;;4.77;2.50;;;26.50;99.90;;;;;;5033392;28;20234;-77
2022/09/14 10:43:00;;;;;;;5.10;1.97;;;26.30;99.90;;;;;;5031531;28;20450;-77
2022/09/14 10:45:35;;;;;;;5.97;2.43;;;26.00;99.90;;;;;;5033462;28;20418;-77
2022/09/14 10:48:21;;;;;;;4.03;2.00;;;26.00;99.90;;;;;;5033072;28;20462;-77
2022/09/14 10:51:10;;;;;;;6.93;2.13;;;26.00;99.90;;;;;;5033450;28;20414;-77
2022/09/14 10:53:48;;;;;;;6.13;2.27;;;26.00;99.90;;;;;;5033610;28;20442;-78
2022/09/14 10:56:39;;;;;;;10.23;2.30;;;25.90;99.90;;;;;;5034846;28;20784;-77
2022/09/14 10:59:12;;;;;;;4.97;2.30;;;25.70;99.90;;;;;;5015820;28;20421;-77
2022/09/14 11:02:15;;;;;;;4.87;2.20;;;25.70;99.90;;;;;;5033749;28;20471;-77
2022/09/14 11:04:58;;;;;;;2.33;1.90;;;25.70;99.90;;;;;;5033003;28;20476;-77
2022/09/14 11:07:50;;;;;;;3.13;2.27;;;25.70;99.90;;;;;;5033310;28;20465;-77
2022/09/14 11:10:31;;;;;;;8.00;2.77;;;25.70;99.90;;;;;;5033145;28;20423;-76
2022/09/14 11:13:20;;;;;;;2.70;1.90;;;25.80;99.90;;;;;;5033081;28;20469;-77
2022/09/14 11:15:59;;;;;;;6.70;2.30;;;25.80;99.90;;;;;;5031384;28;20411;-77
2022/09/14 11:19:00;;;;;;;3.47;2.43;;;25.80;99.90;;;;;;5032804;28;20423;-77
2022/09/14 11:21:48;;;;;;;3.60;2.20;;;25.90;99.90;;;;;;5033164;28;20478;-78
2022/09/14 11:24:23;;;;;;;2.50;2.13;;;26.00;99.90;;;;;;5032016;28;20427;-77
2022/09/14 11:27:00;;;;;;;5.13;2.33;;;26.10;99.90;;;;;;5033284;28;20985;-77
2022/09/14 11:29:43;;;;;;;4.80;2.13;;;26.20;99.90;;;;;;5033007;28;20427;-77
2022/09/14 11:32:11;;;;;;;4.67;2.70;;;26.20;99.90;;;;;;5035742;28;20446;-77
2022/09/14 11:34:46;;;;;;;4.47;2.07;;;26.00;99.90;;;;;;5037567;28;20423;-78
2022/09/14 11:37:16;;;;;;;6.03;2.20;;;25.80;99.90;;;;;;5034484;28;20476;-78
2022/09/14 11:39:54;;;;;;;7.37;1.70;;;25.70;99.90;;;;;;5035137;28;20755;-77
2022/09/14 11:42:27;;;;;;;4.80;1.93;;;25.80;99.90;;;;;;5036552;28;20453;-78
2022/09/14 11:45:06;;;;;;;2.83;2.23;;;25.70;99.90;;;;;;5034534;28;20419;-77
2022/09/14 11:47:41;;;;;;;3.53;2.20;;;25.60;99.90;;;;;;5033516;28;20465;-78
2022/09/14 11:50:21;;;;;;;2.97;2.07;;;25.60;99.90;;;;;;5033237;28;20461;-77
2022/09/14 11:52:55;;;;;;;3.80;2.07;;;25.60;99.90;;;;;;5032921;28;20515;-77
2022/09/14 11:55:21;;;;;;;4.43;1.80;;;25.50;99.90;;;;;;5033355;28;20439;-77
2022/09/14 11:57:47;;;;;;;3.80;2.43;;;25.40;99.90;;;;;;5033333;28;20469;-77
2022/09/14 12:00:19;;;;;;;6.40;1.97;;;25.30;99.90;;;;;;5032371;28;20200;-77
2022/09/14 12:02:59;;;;;;;4.30;1.63;;;25.10;99.90;;;;;;5033244;28;20454;-77
2022/09/14 12:05:31;;;;;;;3.53;1.90;;;25.10;99.90;;;;;;5032578;28;20419;-77
2022/09/14 12:07:58;;;;;;;6.83;1.90;;;25.20;99.90;;;;;;5030296;28;20505;-77
2022/09/14 12:10:25;;;;;;;5.07;1.67;;;25.10;99.90;;;;;;5031460;28;20422;-77
2022/09/14 12:13:04;;;;;;;4.43;1.67;;;25.00;99.90;;;;;;5030682;28;20459;-77
2022/09/14 12:15:34;;;;;;;3.17;1.17;;;25.00;99.90;;;;;;5031315;28;20454;-77
2022/09/14 12:18:05;;;;;;;3.63;1.50;;;24.80;99.90;;;;;;5030417;28;20954;-76
2022/09/14 12:20:37;;;;;;;2.07;1.30;;;24.70;99.90;;;;;;5030200;28;20423;-78
2022/09/14 12:23:14;;;;;;;2.70;1.57;;;24.50;99.90;;;;;;5030579;28;20570;-77
2022/09/14 12:25:53;;;;;;;2.80;1.47;;;24.30;99.90;;;;;;5029491;28;20419;-77
2022/09/14 12:28:49;;;;;;;4.43;1.60;;;24.40;99.90;;;;;;5029541;28;20472;-77
2022/09/14 12:31:56;;;;;;;2.87;1.80;;;24.30;99.90;;;;;;5028061;28;20425;-77
2022/09/14 12:34:31;;;;;;;5.00;1.77;;;24.10;99.90;;;;;;5020129;28;20523;-77
2022/09/14 12:37:01;;;;;;;4.90;2.00;;;24.10;99.90;;;;;;5030139;28;20532;-77
2022/09/14 12:39:34;;;;;;;10.40;2.00;;;23.90;99.90;;;;;;5030693;28;20935;-76
2022/09/14 12:42:22;;;;;;;3.20;2.37;;;23.90;99.90;;;;;;5030002;28;20446;-77
2022/09/14 12:44:48;;;;;;;2.90;1.70;;;23.80;99.90;;;;;;5029508;28;20432;-78
2022/09/14 12:47:23;;;;;;;4.80;2.17;;;23.70;99.90;;;;;;5031012;28;20968;-78
2022/09/14 12:49:49;;;;;;;4.37;2.07;;;23.60;99.90;;;;;;5030988;28;20195;-78
2022/09/14 12:52:50;;;;;;;6.03;2.30;;;23.50;99.90;;;;;;5029610;28;20591;-77
2022/09/14 12:55:33;;;;;;;7.30;2.70;;;23.20;99.90;;;;;;5015240;28;20449;-77
2022/09/14 12:58:08;;;;;;;6.20;2.53;;;23.20;99.90;;;;;;5031056;28;20417;-78
2022/09/14 13:01:11;;;;;;;4.00;2.07;;;23.00;99.90;;;;;;5030572;28;21001;-78
2022/09/14 13:03:37;;;;;;;6.27;2.03;;;23.00;99.90;;;;;;5014404;28;20461;-78
2022/09/14 13:06:02;;;;;;;11.67;2.10;;;22.90;99.90;;;;;;5032260;28;20424;-77
2022/09/14 13:08:28;;;;;;;2.27;1.70;;;22.90;99.90;;;;;;5030845;28;20225;-77
2022/09/14 13:10:54;;;;;;;3.80;2.60;;;22.90;99.90;;;;;;5029691;28;20254;-77
2022/09/14 13:13:30;;;;;;;6.87;1.93;;;22.80;99.90;;;;;;5028910;28;20226;-78